createdAt,value
2017-12-05T00:01:38.780Z,100982.61
2017-12-05T00:04:05.814Z,100978.45
2017-12-05T00:06:32.061Z,100995.63
2017-12-05T00:08:58.343Z,100981.29
2017-12-05T00:11:26.343Z,100985.23
2017-12-05T00:13:52.607Z,100980.84
2017-12-05T00:16:18.988Z,100975.47
2017-12-05T00:18:45.271Z,100996.73
2017-12-05T00:21:11.596Z,100979.70
2017-12-05T00:23:37.894Z,100976.75
2017-12-05T00:26:04.157Z,100979.61
2017-12-05T00:28:30.452Z,100973.11
2017-12-05T00:30:56.711Z,100981.45
2017-12-05T00:33:23.060Z,100980.02
2017-12-05T00:35:49.427Z,100953.34
2017-12-05T00:38:15.712Z,100988.23
2017-12-05T00:40:42.114Z,100989.98
2017-12-05T00:43:08.536Z,100983.81
2017-12-05T00:45:34.948Z,100981.56
2017-12-05T00:48:01.224Z,100988.46
2017-12-05T00:50:27.512Z,100994.27
2017-12-05T00:52:53.780Z,100977.64
2017-12-05T00:55:20.070Z,101002.10
2017-12-05T00:57:46.322Z,100985.00
2017-12-05T01:00:12.598Z,100989.95
2017-12-05T01:02:38.848Z,100986.41
2017-12-05T01:05:05.233Z,100992.79
2017-12-05T01:07:31.593Z,100994.11
2017-12-05T01:09:57.874Z,100994.92
2017-12-05T01:12:24.933Z,100988.75
2017-12-05T01:14:51.184Z,100995.30
2017-12-05T01:17:18.218Z,100995.45
2017-12-05T01:19:44.471Z,100993.90
2017-12-05T01:22:10.770Z,101000.50
2017-12-05T01:24:37.014Z,100994.04
2017-12-05T01:27:03.315Z,101000.54
2017-12-05T01:29:29.587Z,101005.00
2017-12-05T01:31:55.892Z,101004.10
2017-12-05T01:34:22.224Z,100998.88
2017-12-05T01:36:48.465Z,101000.39
2017-12-05T01:39:15.600Z,100996.05
2017-12-05T01:41:41.830Z,100994.33
2017-12-05T01:44:08.091Z,100993.84
2017-12-05T01:46:35.138Z,100998.13
2017-12-05T01:49:02.178Z,100990.47
2017-12-05T01:51:29.432Z,100991.74
2017-12-05T01:53:55.725Z,100995.99
2017-12-05T01:56:22.324Z,100992.72
2017-12-05T01:58:49.339Z,100995.10
2017-12-05T02:01:16.785Z,100991.45
2017-12-05T02:03:43.029Z,100990.95
2017-12-05T02:06:10.181Z,100989.08
2017-12-05T02:08:36.511Z,100987.81
2017-12-05T02:11:02.821Z,100985.59
2017-12-05T02:13:29.053Z,100990.38
2017-12-05T02:15:55.298Z,100981.38
2017-12-05T02:18:22.341Z,100985.87
2017-12-05T02:20:48.642Z,100990.38
2017-12-05T02:23:14.913Z,100991.94
2017-12-05T02:25:41.914Z,100990.69
2017-12-05T02:28:12.993Z,100996.91
2017-12-05T02:30:39.290Z,101002.52
2017-12-05T02:33:05.549Z,100998.11
2017-12-05T02:35:31.774Z,100995.98
2017-12-05T02:37:58.013Z,100999.42
2017-12-05T02:40:42.819Z,100992.91
2017-12-05T02:43:09.820Z,100986.66
2017-12-05T02:45:36.868Z,100989.73
2017-12-05T02:48:03.160Z,100987.34
2017-12-05T02:50:29.408Z,100984.84
2017-12-05T02:52:55.720Z,100983.63
2017-12-05T02:55:21.981Z,100983.86
2017-12-05T02:57:48.304Z,100975.09
2017-12-05T03:00:14.576Z,100980.63
2017-12-05T03:02:40.854Z,100975.42
2017-12-05T03:05:07.136Z,100975.00
2017-12-05T03:07:33.403Z,100978.19
2017-12-05T03:09:59.660Z,100969.58
2017-12-05T03:12:25.977Z,100968.17
2017-12-05T03:14:52.259Z,100971.22
2017-12-05T03:17:19.260Z,100966.22
2017-12-05T03:19:45.579Z,100965.87
2017-12-05T03:22:11.903Z,100966.80
2017-12-05T03:24:38.227Z,100965.70
2017-12-05T03:27:04.479Z,100955.03
2017-12-05T03:29:30.798Z,100958.80
2017-12-05T03:31:57.091Z,100948.87
2017-12-05T03:34:24.148Z,100955.06
2017-12-05T03:36:50.373Z,100960.79
2017-12-05T03:39:16.637Z,100948.95
2017-12-05T03:41:42.951Z,100959.88
2017-12-05T03:44:09.213Z,100959.46
2017-12-05T03:46:35.515Z,100953.14
2017-12-05T03:49:01.765Z,100953.28
2017-12-05T03:51:28.061Z,100954.00
2017-12-05T03:53:55.114Z,100945.44
2017-12-05T03:56:22.104Z,100946.27
2017-12-05T03:58:48.354Z,100943.84
2017-12-05T04:01:15.391Z,100937.14
2017-12-05T04:03:41.640Z,100937.04
2017-12-05T04:06:07.896Z,100937.09
2017-12-05T04:08:34.905Z,100927.81
2017-12-05T04:11:01.164Z,100924.52
2017-12-05T04:13:28.265Z,100930.98
2017-12-05T04:15:54.538Z,100918.24
2017-12-05T04:18:21.543Z,100907.28
2017-12-05T04:20:47.844Z,100914.39
2017-12-05T04:23:14.157Z,100913.36
2017-12-05T04:25:48.434Z,100896.97
2017-12-05T04:28:14.720Z,100893.16
2017-12-05T04:30:40.996Z,100893.57
2017-12-05T04:33:07.264Z,100901.44
2017-12-05T04:35:34.330Z,100893.78
2017-12-05T04:38:00.660Z,100890.39
2017-12-05T04:40:27.031Z,100887.60
2017-12-05T04:42:53.325Z,100882.86
2017-12-05T04:45:19.731Z,100878.17
2017-12-05T04:47:46.743Z,100890.09
2017-12-05T04:50:13.044Z,100888.32
2017-12-05T04:52:39.334Z,100890.26
2017-12-05T04:55:05.608Z,100886.30
2017-12-05T04:57:31.927Z,100896.23
2017-12-05T04:59:58.258Z,100890.05
2017-12-05T05:02:24.630Z,100889.67
2017-12-05T05:04:51.885Z,100889.55
2017-12-05T05:07:18.179Z,100888.22
2017-12-05T05:09:44.477Z,100874.52
2017-12-05T05:12:10.770Z,100897.45
2017-12-05T05:14:37.100Z,100897.53
2017-12-05T05:17:04.218Z,100892.97
2017-12-05T05:19:30.514Z,100895.86
2017-12-05T05:21:57.555Z,100863.60
2017-12-05T05:24:23.910Z,100901.73
2017-12-05T05:26:50.216Z,100871.70
2017-12-05T05:29:17.270Z,100899.65
2017-12-05T05:31:44.289Z,100907.83
2017-12-05T05:34:10.613Z,100907.23
2017-12-05T05:36:36.912Z,100920.66
2017-12-05T05:39:03.312Z,100915.83
2017-12-05T05:41:29.701Z,100912.30
2017-12-05T05:43:55.988Z,100902.42
2017-12-05T05:46:22.314Z,100914.95
2017-12-05T05:48:48.593Z,100915.59
2017-12-05T05:51:14.959Z,100914.83
2017-12-05T05:53:41.290Z,100921.46
2017-12-05T05:56:07.599Z,100927.81
2017-12-05T05:58:33.875Z,100922.69
2017-12-05T06:01:00.129Z,100919.70
2017-12-05T06:03:26.431Z,100955.53
2017-12-05T06:05:52.695Z,100930.68
2017-12-05T06:08:18.967Z,100935.45
2017-12-05T06:10:45.519Z,100920.81
2017-12-05T06:13:11.799Z,100927.45
2017-12-05T06:15:38.111Z,100946.17
2017-12-05T06:18:04.408Z,100940.55
2017-12-05T06:20:31.596Z,100943.08
2017-12-05T06:22:58.864Z,100950.81
2017-12-05T06:25:25.120Z,100939.77
2017-12-05T06:27:51.388Z,100959.85
2017-12-05T06:30:18.368Z,100946.25
2017-12-05T06:32:44.664Z,100952.61
2017-12-05T06:35:10.894Z,100958.14
2017-12-05T06:37:38.010Z,100947.44
2017-12-05T06:40:04.304Z,100957.94
2017-12-05T06:42:30.588Z,100976.32
2017-12-05T06:44:56.885Z,100970.05
2017-12-05T06:47:23.165Z,100974.28
2017-12-05T06:49:49.426Z,100992.25
2017-12-05T06:52:15.733Z,100975.29
2017-12-05T06:54:42.011Z,101009.50
2017-12-05T06:57:08.343Z,100996.25
2017-12-05T06:59:34.639Z,101000.77
2017-12-05T07:02:00.965Z,101001.09
2017-12-05T07:04:27.304Z,100995.12
2017-12-05T07:06:53.933Z,100999.50
2017-12-05T07:09:21.101Z,100994.83
2017-12-05T07:11:47.389Z,101011.24
2017-12-05T07:14:13.673Z,101016.52
2017-12-05T07:16:40.498Z,100998.45
2017-12-05T07:19:06.891Z,101008.48
2017-12-05T07:21:33.132Z,101015.03
2017-12-05T07:23:59.436Z,101010.69
2017-12-05T07:26:25.693Z,101008.87
2017-12-05T07:28:51.979Z,101021.74
2017-12-05T07:31:18.268Z,101028.42
2017-12-05T07:33:44.738Z,101036.98
2017-12-05T07:36:11.008Z,101037.27
2017-12-05T07:38:37.991Z,101031.75
2017-12-05T07:41:04.306Z,101026.42
2017-12-05T07:43:30.586Z,101039.15
2017-12-05T07:45:56.866Z,101042.43
2017-12-05T07:48:23.138Z,101047.84
2017-12-05T07:50:49.392Z,101044.93
2017-12-05T07:53:15.724Z,101045.98
2017-12-05T07:55:42.012Z,101050.66
2017-12-05T07:58:08.280Z,101059.34
2017-12-05T08:00:34.625Z,101054.73
2017-12-05T08:03:01.701Z,101077.45
2017-12-05T08:05:27.996Z,101054.23
2017-12-05T08:07:55.158Z,101062.45
2017-12-05T08:10:21.413Z,101056.49
2017-12-05T08:12:47.704Z,101060.86
2017-12-05T08:15:14.021Z,101060.71
2017-12-05T08:17:40.306Z,101056.97
2017-12-05T08:20:06.637Z,101068.76
2017-12-05T08:22:32.919Z,101087.00
2017-12-05T08:24:59.181Z,101079.52
2017-12-05T08:27:25.869Z,101083.83
2017-12-05T08:29:52.113Z,101072.30
2017-12-05T08:32:18.381Z,101082.50
2017-12-05T08:34:44.682Z,101072.47
2017-12-05T08:37:11.053Z,101093.41
2017-12-05T08:39:37.390Z,101096.38
2017-12-05T08:42:03.720Z,101087.36
2017-12-05T08:44:30.009Z,101063.41
2017-12-05T08:46:56.947Z,101090.88
2017-12-05T08:49:23.220Z,101085.67
2017-12-05T08:51:49.523Z,101106.66
2017-12-05T08:54:15.806Z,101101.25
2017-12-05T08:56:42.118Z,101101.27
2017-12-05T08:59:08.447Z,101114.00
2017-12-05T09:01:34.704Z,101105.03
2017-12-05T09:04:00.976Z,101112.98
2017-12-05T09:06:27.270Z,101120.96
2017-12-05T09:08:53.704Z,101120.73
2017-12-05T09:11:20.028Z,101122.72
2017-12-05T09:13:46.372Z,101152.93
2017-12-05T09:16:12.669Z,101127.70
2017-12-05T09:18:38.938Z,101130.47
2017-12-05T09:21:06.176Z,101129.45
2017-12-05T09:23:32.614Z,101121.50
2017-12-05T09:25:58.845Z,101140.33
2017-12-05T09:28:25.111Z,101127.53
2017-12-05T09:30:51.413Z,101116.70
2017-12-05T09:33:17.703Z,101127.44
2017-12-05T09:35:44.043Z,101130.59
2017-12-05T09:38:10.437Z,101141.88
2017-12-05T09:40:36.699Z,101132.86
2017-12-05T09:43:02.995Z,101129.59
2017-12-05T09:45:29.336Z,101133.51
2017-12-05T09:47:56.402Z,101138.56
2017-12-05T09:50:22.687Z,101137.81
2017-12-05T09:52:55.891Z,101129.69
2017-12-05T09:55:22.910Z,101139.56
2017-12-05T09:57:49.342Z,101138.13
2017-12-05T10:00:15.818Z,101134.39
2017-12-05T10:02:42.225Z,101127.92
2017-12-05T10:05:08.717Z,101141.02
2017-12-05T10:07:36.055Z,101139.23
2017-12-05T10:10:02.345Z,101129.98
2017-12-05T10:12:28.641Z,101143.49
2017-12-05T10:14:54.969Z,101141.39
2017-12-05T10:17:21.402Z,101139.88
2017-12-05T10:19:47.669Z,101153.07
2017-12-05T10:22:14.088Z,101146.95
2017-12-05T10:24:41.135Z,101140.39
2017-12-05T10:27:07.560Z,101108.88
2017-12-05T10:29:33.989Z,101149.47
2017-12-05T10:32:00.276Z,101144.21
2017-12-05T10:34:26.718Z,101154.17
2017-12-05T10:36:53.512Z,101150.55
2017-12-05T10:41:50.924Z,101155.20
2017-12-05T10:44:17.330Z,101161.22
2017-12-05T10:46:43.653Z,101154.92
2017-12-05T10:49:10.265Z,101158.67
2017-12-05T10:51:36.813Z,101143.11
2017-12-05T10:54:03.626Z,101149.71
2017-12-05T10:56:30.265Z,101152.80
2017-12-05T10:58:56.592Z,101145.20
2017-12-05T11:01:23.428Z,101148.31
2017-12-05T11:03:50.254Z,101142.25
2017-12-05T11:06:17.020Z,101163.38
2017-12-05T11:08:43.896Z,101145.87
2017-12-05T11:11:10.938Z,101158.76
2017-12-05T11:13:37.962Z,101145.95
2017-12-05T11:16:05.007Z,101139.36
2017-12-05T11:18:31.809Z,101138.61
2017-12-05T11:20:59.111Z,101150.28
2017-12-05T11:23:26.429Z,101119.17
2017-12-05T11:25:54.353Z,101134.16
2017-12-05T11:28:20.718Z,101134.69
2017-12-05T11:30:47.839Z,101136.93
2017-12-05T11:33:14.681Z,101131.33
2017-12-05T11:35:41.448Z,101130.95
2017-12-05T11:38:07.767Z,101128.11
2017-12-05T11:40:34.074Z,101125.84
2017-12-05T11:43:01.044Z,101114.58
2017-12-05T11:45:27.359Z,101109.84
2017-12-05T11:47:53.784Z,101118.93
2017-12-05T11:50:20.072Z,101113.86
2017-12-05T11:52:47.162Z,101122.59
2017-12-05T11:55:13.488Z,101132.34
2017-12-05T11:57:39.773Z,101116.64
2017-12-05T12:00:06.121Z,101115.91
2017-12-05T12:02:32.995Z,101135.16
2017-12-05T12:04:59.389Z,101133.85
2017-12-05T12:07:26.457Z,101127.33
2017-12-05T12:09:52.732Z,101135.92
2017-12-05T12:12:19.042Z,101126.24
2017-12-05T12:14:45.458Z,101129.41
2017-12-05T12:17:12.731Z,101127.38
2017-12-05T12:19:40.233Z,101126.77
2017-12-05T12:22:07.728Z,101124.67
2017-12-05T12:24:34.909Z,101120.13
2017-12-05T12:27:01.384Z,101126.53
2017-12-05T12:29:28.557Z,101123.25
2017-12-05T12:31:55.046Z,101109.89
2017-12-05T12:34:21.479Z,101119.38
2017-12-05T12:36:48.723Z,101116.30
2017-12-05T12:39:15.244Z,101124.78
2017-12-05T12:41:42.765Z,101122.49
2017-12-05T12:44:09.349Z,101127.79
2017-12-05T12:46:37.111Z,101124.55
2017-12-05T12:49:04.104Z,101112.65
2017-12-05T12:51:30.734Z,101126.83
2017-12-05T12:53:57.930Z,101120.16
2017-12-05T12:56:24.991Z,101122.36
2017-12-05T12:58:51.322Z,101115.30
2017-12-05T13:01:17.854Z,101120.00
2017-12-05T13:03:44.234Z,101124.84
2017-12-05T13:06:11.336Z,101119.02
2017-12-05T13:08:37.867Z,101113.34
2017-12-05T13:11:04.358Z,101117.66
2017-12-05T13:13:31.559Z,101118.56
2017-12-05T13:15:58.635Z,101109.08
2017-12-05T13:18:25.009Z,101117.43
2017-12-05T13:20:51.397Z,101097.63
2017-12-05T13:23:17.967Z,101107.85
2017-12-05T13:25:44.267Z,101092.44
2017-12-05T13:28:10.563Z,101113.14
2017-12-05T13:30:36.809Z,101115.19
2017-12-05T13:33:03.100Z,101117.47
2017-12-05T13:35:29.430Z,101099.59
2017-12-05T13:37:55.701Z,101115.91
2017-12-05T13:40:22.010Z,101101.49
2017-12-05T13:42:49.308Z,101123.20
2017-12-05T13:45:15.779Z,101124.73
2017-12-05T13:47:42.814Z,101114.70
2017-12-05T13:50:09.833Z,101122.39
2017-12-05T13:52:36.152Z,101111.25
2017-12-05T13:55:02.455Z,101117.20
2017-12-05T13:57:28.899Z,101111.67
2017-12-05T13:59:55.181Z,101115.94
2017-12-05T14:02:21.684Z,101104.12
2017-12-05T14:04:47.980Z,101103.09
2017-12-05T14:07:14.278Z,101114.20
2017-12-05T14:09:41.369Z,101104.19
2017-12-05T14:12:07.704Z,101103.27
2017-12-05T14:14:34.981Z,101109.03
2017-12-05T14:17:01.273Z,101108.63
2017-12-05T14:19:27.595Z,101109.68
2017-12-05T14:21:53.905Z,101106.92
2017-12-05T14:24:20.997Z,101117.67
2017-12-05T14:26:47.301Z,101113.81
2017-12-05T14:29:13.565Z,101119.06
2017-12-05T14:31:39.865Z,101109.19
2017-12-05T14:34:06.169Z,101125.02
2017-12-05T14:36:34.372Z,101113.08
2017-12-05T14:39:00.794Z,101130.06
2017-12-05T14:41:27.101Z,101123.65
2017-12-05T14:43:54.097Z,101113.98
2017-12-05T14:46:20.449Z,101117.76
2017-12-05T14:48:46.757Z,101116.21
2017-12-05T14:51:13.066Z,101107.38
2017-12-05T14:53:39.403Z,101112.22
2017-12-05T14:56:05.756Z,101102.20
2017-12-05T14:58:32.110Z,101112.34
2017-12-05T15:00:58.522Z,101111.81
2017-12-05T15:03:24.867Z,101106.02
2017-12-05T15:05:51.365Z,101105.61
2017-12-05T15:08:17.700Z,101104.05
2017-12-05T15:10:45.077Z,101109.48
2017-12-05T15:13:12.193Z,101111.21
2017-12-05T15:15:39.575Z,101111.02
2017-12-05T15:18:05.871Z,101134.92
2017-12-05T15:20:34.201Z,101115.98
2017-12-05T15:23:00.739Z,101112.15
2017-12-05T15:25:27.012Z,101113.23
2017-12-05T15:27:54.019Z,101112.67
2017-12-05T15:30:20.355Z,101108.75
2017-12-05T15:32:46.682Z,101118.84
2017-12-05T15:35:13.464Z,101125.44
2017-12-05T15:37:40.534Z,101129.75
2017-12-05T15:40:06.986Z,101119.88
2017-12-05T15:42:33.390Z,101127.91
2017-12-05T15:44:59.688Z,101125.25
2017-12-05T15:47:26.842Z,101143.97
2017-12-05T15:49:54.080Z,101137.71
2017-12-05T15:52:24.970Z,101132.41
2017-12-05T15:54:52.320Z,101136.23
2017-12-05T15:57:20.916Z,101131.39
2017-12-05T15:59:59.962Z,101135.95
2017-12-05T16:02:27.675Z,101138.08
2017-12-05T16:04:55.639Z,101127.50
2017-12-05T16:07:22.041Z,101117.94
2017-12-05T16:09:49.119Z,101129.96
2017-12-05T16:12:15.525Z,101132.05
2017-12-05T16:14:42.911Z,101130.01
2017-12-05T16:17:11.331Z,101118.58
2017-12-05T16:19:37.694Z,101128.13
2017-12-05T16:22:03.976Z,101124.61
2017-12-05T16:24:31.474Z,101130.07
2017-12-05T16:26:58.622Z,101126.84
2017-12-05T16:29:24.984Z,101122.27
2017-12-05T16:31:51.660Z,101122.20
2017-12-05T16:34:17.981Z,101127.80
2017-12-05T16:36:45.040Z,101123.02
2017-12-05T16:39:11.368Z,101116.39
2017-12-05T16:41:37.668Z,101124.75
2017-12-05T16:44:03.961Z,101118.84
2017-12-05T16:46:30.214Z,101111.11
2017-12-05T16:48:56.555Z,101111.64
2017-12-05T16:51:23.113Z,101113.55
2017-12-05T16:53:49.506Z,101122.67
2017-12-05T16:56:16.575Z,101118.50
2017-12-05T16:58:43.075Z,101121.61
2017-12-05T17:01:09.365Z,101130.02
2017-12-05T17:03:35.665Z,101114.73
2017-12-05T17:06:01.961Z,101107.02
2017-12-05T17:08:28.309Z,101090.83
2017-12-05T17:10:54.593Z,101109.81
2017-12-05T17:13:21.615Z,101105.13
2017-12-05T17:15:48.048Z,101107.37
2017-12-05T17:18:14.352Z,101100.27
2017-12-05T17:20:40.668Z,101105.66
2017-12-05T17:23:07.144Z,101086.34
2017-12-05T17:25:33.496Z,101099.95
2017-12-05T17:28:00.536Z,101101.31
2017-12-05T17:30:27.590Z,101109.13
2017-12-05T17:32:54.706Z,101106.59
2017-12-05T17:35:21.006Z,101088.50
2017-12-05T17:37:48.444Z,101098.38
2017-12-05T17:40:15.815Z,101117.47
2017-12-05T17:42:42.292Z,101138.97
2017-12-05T17:45:08.595Z,101109.89
2017-12-05T17:47:34.867Z,101104.89
2017-12-05T17:50:01.205Z,101101.33
2017-12-05T17:52:28.186Z,101104.89
2017-12-05T17:54:54.522Z,101113.22
2017-12-05T17:57:20.953Z,101104.52
2017-12-05T17:59:47.383Z,101118.16
2017-12-05T18:02:13.665Z,101093.06
2017-12-05T18:04:40.013Z,101115.95
2017-12-05T18:07:07.126Z,101091.78
2017-12-05T18:09:33.394Z,101111.77
2017-12-05T18:12:00.514Z,101126.00
2017-12-05T18:14:26.832Z,101124.52
2017-12-05T18:16:53.166Z,101129.31
2017-12-05T18:19:19.496Z,101122.86
2017-12-05T18:21:46.536Z,101131.27
2017-12-05T18:24:12.980Z,101123.81
2017-12-05T18:26:39.318Z,101134.93
2017-12-05T18:29:05.644Z,101124.56
2017-12-05T18:31:32.005Z,101131.02
2017-12-05T18:33:59.122Z,101126.00
2017-12-05T18:36:26.321Z,101132.37
2017-12-05T18:38:53.433Z,101108.27
2017-12-05T18:41:19.689Z,101126.77
2017-12-05T18:43:46.733Z,101141.36
2017-12-05T18:46:13.788Z,101127.06
2017-12-05T18:48:40.832Z,101126.28
2017-12-05T18:51:07.153Z,101118.50
2017-12-05T18:53:33.441Z,101125.41
2017-12-05T18:55:59.682Z,101125.94
2017-12-05T18:58:25.974Z,101127.41
2017-12-05T19:00:52.325Z,101135.01
2017-12-05T19:03:18.658Z,101135.36
2017-12-05T19:05:44.990Z,101130.47
2017-12-05T19:08:11.281Z,101133.58
2017-12-05T19:10:38.318Z,101129.67
2017-12-05T19:13:06.398Z,101136.80
2017-12-05T19:15:33.627Z,101103.73
2017-12-05T19:18:00.289Z,101134.08
2017-12-05T19:20:27.325Z,101117.15
2017-12-05T19:22:53.683Z,101129.38
2017-12-05T19:25:20.020Z,101129.94
2017-12-05T19:27:46.487Z,101131.31
2017-12-05T19:30:12.948Z,101125.89
2017-12-05T19:32:39.360Z,101141.36
2017-12-05T19:35:06.507Z,101132.56
2017-12-05T19:37:32.862Z,101122.91
2017-12-05T19:40:00.986Z,101140.08
2017-12-05T19:42:28.263Z,101128.63
2017-12-05T19:44:54.564Z,101135.81
2017-12-05T19:47:22.972Z,101134.27
2017-12-05T19:49:49.313Z,101127.78
2017-12-05T19:52:15.775Z,101128.13
2017-12-05T19:54:45.323Z,101128.52
2017-12-05T19:57:11.617Z,101103.67
2017-12-05T19:59:38.079Z,101132.98
2017-12-05T20:02:04.451Z,101139.34
2017-12-05T20:04:30.876Z,101154.50
2017-12-05T20:06:57.260Z,101152.28
2017-12-05T20:09:33.592Z,101139.72
2017-12-05T20:11:59.940Z,101159.06
2017-12-05T20:14:27.191Z,101157.36
2017-12-05T20:16:53.991Z,101136.09
2017-12-05T20:19:20.474Z,101141.02
2017-12-05T20:21:47.086Z,101162.13
2017-12-05T20:24:13.617Z,101153.83
2017-12-05T20:26:39.970Z,101156.70
2017-12-05T20:29:06.578Z,101147.98
2017-12-05T20:31:33.018Z,101133.84
2017-12-05T20:33:59.560Z,101152.39
2017-12-05T20:36:26.902Z,101154.83
2017-12-05T20:38:53.234Z,101139.22
2017-12-05T20:41:19.626Z,101141.16
2017-12-05T20:43:47.080Z,101134.42
2017-12-05T20:46:13.470Z,101127.38
2017-12-05T20:48:39.929Z,101141.47
2017-12-05T20:51:06.359Z,101115.58
2017-12-05T20:53:33.026Z,101152.31
2017-12-05T20:56:00.116Z,101134.95
2017-12-05T20:58:26.471Z,101126.58
2017-12-05T21:00:52.851Z,101130.62
2017-12-05T21:03:19.227Z,101123.12
2017-12-05T21:05:45.680Z,101099.44
2017-12-05T21:08:12.067Z,101116.00
2017-12-05T21:10:43.546Z,101121.84
2017-12-05T21:13:11.653Z,101115.90
2017-12-05T21:15:38.010Z,101109.44
2017-12-05T21:18:04.379Z,101102.21
2017-12-05T21:20:30.765Z,101115.94
2017-12-05T21:22:57.382Z,101118.55
2017-12-05T21:25:23.777Z,101113.91
2017-12-05T21:27:50.100Z,101110.92
2017-12-05T21:30:16.379Z,101104.25
2017-12-05T21:32:43.490Z,101109.41
2017-12-05T21:35:09.783Z,101108.13
2017-12-05T21:37:36.053Z,101102.05
2017-12-05T21:40:02.584Z,101096.07
2017-12-05T21:42:29.934Z,101101.04
2017-12-05T21:44:56.308Z,101103.30
2017-12-05T21:47:22.632Z,101100.61
2017-12-05T21:49:48.934Z,101103.05
2017-12-05T21:52:15.655Z,101112.60
2017-12-05T21:54:42.406Z,101097.02
2017-12-05T21:57:09.210Z,101096.78
2017-12-05T21:59:36.598Z,101080.98
2017-12-05T22:02:03.602Z,101107.49
2017-12-05T22:04:30.363Z,101100.23
2017-12-05T22:06:58.121Z,101091.81
2017-12-05T22:09:26.135Z,101103.98
2017-12-05T22:11:52.877Z,101100.95
2017-12-05T22:14:21.645Z,101106.73
2017-12-05T22:16:47.926Z,101110.25
2017-12-05T22:19:14.206Z,101103.91
2017-12-05T22:21:40.584Z,101101.51
2017-12-05T22:24:06.883Z,101105.41
2017-12-05T22:26:33.202Z,101109.75
2017-12-05T22:28:59.522Z,101107.23
2017-12-05T22:31:26.666Z,101101.94
2017-12-05T22:33:52.958Z,101105.63
2017-12-05T22:36:19.251Z,101098.27
2017-12-05T22:38:45.579Z,101098.93
2017-12-05T22:41:11.868Z,101099.43
2017-12-05T22:43:38.930Z,101114.45
2017-12-05T22:46:06.299Z,101110.41
2017-12-05T22:48:32.642Z,101099.83
2017-12-05T22:51:00.324Z,101118.45
2017-12-05T22:53:27.370Z,101121.49
2017-12-05T22:55:53.631Z,101103.56
2017-12-05T22:58:19.929Z,101108.86
2017-12-05T23:00:46.213Z,101118.13
2017-12-05T23:03:13.217Z,101111.56
2017-12-05T23:05:39.489Z,101118.42
2017-12-05T23:08:06.507Z,101115.70
2017-12-05T23:10:32.779Z,101113.67
2017-12-05T23:12:59.438Z,101120.37
2017-12-05T23:15:25.838Z,101130.80
2017-12-05T23:17:52.482Z,101120.83
2017-12-05T23:20:18.764Z,101111.53
2017-12-05T23:22:45.048Z,101122.73
2017-12-05T23:25:11.368Z,101149.61
2017-12-05T23:27:37.736Z,101128.67
2017-12-05T23:30:04.032Z,101125.34
2017-12-05T23:32:31.492Z,101129.00
2017-12-05T23:34:57.790Z,101114.56
2017-12-05T23:37:24.133Z,101111.42
2017-12-05T23:39:50.444Z,101127.22
2017-12-05T23:42:16.821Z,101118.58
2017-12-05T23:44:43.149Z,101129.02
2017-12-05T23:47:10.210Z,101124.16
2017-12-05T23:49:37.279Z,101102.91
2017-12-05T23:52:04.013Z,101124.27
2017-12-05T23:54:30.305Z,101120.96
2017-12-05T23:56:56.600Z,101131.84
2017-12-05T23:59:22.889Z,101122.41
